Time;durP1;ratioP1;P1;durP2;ratioP2;P2;SDS_P1;SDS_P2;PMS_P1;PMS_P2;Temp;Humidity;BMP_temperature;BMP_pressure;BME280_temperature;BME280_humidity;BME280_pressure;Samples;Min_cycle;Max_cycle;Signal;HPM_P1;HPM_P2
2021/04/06 00:04:00;;;;;;;4.33;1.73;;;;;;;4.04;45.34;97394.41;8303481;28;20654;-83
2021/04/06 00:08:02;;;;;;;4.60;1.63;;;;;;;4.11;45.79;97407.00;8301745;28;20209;-83
2021/04/06 00:12:06;;;;;;;4.23;1.80;;;;;;;4.10;45.83;97401.91;8301985;28;20213;-83
2021/04/06 00:16:10;;;;;;;5.07;1.80;;;;;;;3.88;46.18;97407.63;8301245;28;20244;-83
2021/04/06 00:20:13;;;;;;;5.40;1.90;;;;;;;3.87;46.17;97408.50;8303526;28;20209;-83
2021/04/06 00:24:15;;;;;;;6.00;1.77;;;;;;;3.92;46.29;97405.78;8307196;28;20209;-82
2021/04/06 00:28:20;;;;;;;4.07;2.00;;;;;;;3.72;47.43;97402.03;8306053;28;20201;-82
2021/04/06 00:32:25;;;;;;;5.20;1.90;;;;;;;3.75;47.23;97411.41;8313213;28;20201;-83
2021/04/06 00:36:28;;;;;;;5.67;1.80;;;;;;;3.74;46.91;97419.09;8316853;28;20216;-83
2021/04/06 00:40:33;;;;;;;7.23;2.10;;;;;;;3.85;47.11;97409.44;8308043;28;20204;-83
2021/04/06 00:44:38;;;;;;;3.67;1.93;;;;;;;3.32;47.97;97415.84;8309438;28;20214;-82
2021/04/06 00:48:45;;;;;;;4.87;2.20;;;;;;;3.80;47.25;97413.81;8309281;28;20236;-82
2021/04/06 00:52:47;;;;;;;4.93;1.97;;;;;;;3.59;47.36;97412.66;8308227;28;20219;-82
2021/04/06 00:56:56;;;;;;;6.67;1.97;;;;;;;3.71;47.29;97414.88;8309481;28;20260;-82
2021/04/06 01:01:03;;;;;;;5.20;2.27;;;;;;;3.85;46.84;97410.25;8309483;28;20196;-82
2021/04/06 01:05:08;;;;;;;5.47;2.00;;;;;;;3.96;47.29;97401.44;8308708;28;20509;-82
2021/04/06 01:09:10;;;;;;;5.17;1.90;;;;;;;3.92;47.05;97398.13;8305688;28;20217;-83
2021/04/06 01:13:13;;;;;;;4.43;1.87;;;;;;;3.77;47.66;97404.50;8318628;28;20201;-82
2021/04/06 01:17:16;;;;;;;7.53;2.10;;;;;;;3.84;47.67;97406.00;8322052;28;20223;-83
2021/04/06 01:21:22;;;;;;;4.23;1.60;;;;;;;3.69;47.69;97403.84;8316724;28;20198;-83
2021/04/06 01:25:29;;;;;;;7.17;2.10;;;;;;;4.05;47.60;97402.03;8324982;28;20657;-83
2021/04/06 01:29:31;;;;;;;5.77;2.40;;;;;;;3.75;47.75;97406.28;8321707;28;20185;-82
2021/04/06 01:33:34;;;;;;;5.30;2.10;;;;;;;3.72;47.10;97394.38;8322099;28;20227;-82
2021/04/06 01:37:37;;;;;;;6.57;2.20;;;;;;;3.65;47.17;97392.84;8339134;28;20597;-82
2021/04/06 01:41:40;;;;;;;5.57;1.80;;;;;;;3.31;48.10;97380.03;8340555;28;20204;-82
2021/04/06 01:45:44;;;;;;;5.37;2.10;;;;;;;3.58;47.97;97370.00;8339751;28;20582;-82
2021/04/06 01:49:46;;;;;;;5.93;2.10;;;;;;;3.49;48.02;97365.97;8339694;28;20271;-82
2021/04/06 01:53:49;;;;;;;5.03;1.77;;;;;;;3.31;48.33;97362.13;8340192;28;20232;-82
2021/04/06 01:57:53;;;;;;;5.43;1.83;;;;;;;3.48;48.02;97349.78;8339955;28;20200;-82
2021/04/06 02:01:57;;;;;;;5.33;2.10;;;;;;;3.36;47.71;97349.22;8338645;28;20204;-81
2021/04/06 02:05:59;;;;;;;6.90;2.20;;;;;;;3.12;48.24;97349.81;8341249;28;20200;-81
2021/04/06 02:10:01;;;;;;;6.10;2.00;;;;;;;3.34;47.88;97344.16;8342516;28;20217;-81
2021/04/06 02:14:08;;;;;;;5.33;1.80;;;;;;;3.55;47.52;97344.47;8341772;28;20711;-82
2021/04/06 02:18:20;;;;;;;8.60;1.80;;;;;;;3.36;47.05;97339.00;8341813;28;20211;-81
2021/04/06 02:22:22;;;;;;;5.00;1.90;;;;;;;3.43;47.34;97337.97;8338611;28;20211;-82
2021/04/06 02:26:24;;;;;;;6.77;2.03;;;;;;;3.40;47.45;97341.44;8341038;28;20217;-82
2021/04/06 02:30:33;;;;;;;7.13;1.80;;;;;;;3.22;47.58;97329.09;8340607;28;20215;-82
2021/04/06 02:34:37;;;;;;;7.07;2.20;;;;;;;3.10;47.56;97318.31;8340930;28;20231;-82
2021/04/06 02:38:41;;;;;;;5.63;1.57;;;;;;;3.17;47.75;97318.97;8341060;28;20200;-82
2021/04/06 02:42:50;;;;;;;6.67;2.00;;;;;;;3.00;47.94;97313.44;8340911;28;20208;-82
2021/04/06 02:46:53;;;;;;;7.93;2.30;;;;;;;3.37;47.21;97320.19;8340537;28;20201;-82
2021/04/06 02:50:55;;;;;;;8.27;2.10;;;;;;;3.29;47.37;97318.69;8341061;28;20236;-82
2021/04/06 02:54:58;;;;;;;4.43;1.73;;;;;;;3.07;47.97;97314.97;8340342;28;20593;-82
2021/04/06 02:59:17;;;;;;;5.53;1.97;;;;;;;3.24;47.15;97302.59;8341062;28;20676;-83
2021/04/06 03:03:22;;;;;;;5.27;2.00;;;;;;;3.13;47.52;97314.81;8341593;28;20216;-82
2021/04/06 03:07:26;;;;;;;5.73;1.90;;;;;;;2.92;47.60;97304.22;8343375;28;20212;-82
2021/04/06 03:11:28;;;;;;;5.30;1.73;;;;;;;3.41;47.63;97296.19;8351696;28;20208;-81
2021/04/06 03:15:31;;;;;;;6.97;1.93;;;;;;;3.19;47.85;97290.81;8368269;28;20231;-82
2021/04/06 03:19:34;;;;;;;5.63;1.87;;;;;;;3.47;47.50;97290.94;8367835;28;20208;-82
2021/04/06 03:23:36;;;;;;;4.77;1.90;;;;;;;3.50;47.27;97285.69;8334255;28;20201;-82
2021/04/06 03:27:42;;;;;;;5.77;1.67;;;;;;;3.44;47.18;97289.25;8333059;28;20235;-82
2021/04/06 03:31:45;;;;;;;6.83;1.90;;;;;;;3.16;47.77;97286.59;8334242;28;20554;-82
2021/04/06 03:35:48;;;;;;;7.97;2.20;;;;;;;3.36;47.62;97282.69;8334886;28;20224;-81
2021/04/06 03:39:51;;;;;;;5.20;1.87;;;;;;;3.37;47.31;97279.22;8333529;28;20200;-82
2021/04/06 03:43:53;;;;;;;6.50;2.07;;;;;;;3.31;47.54;97293.88;8306882;28;20719;-82
2021/04/06 03:47:57;;;;;;;7.37;1.83;;;;;;;3.31;47.63;97285.34;8299777;28;20225;-82
2021/04/06 03:52:02;;;;;;;6.83;1.63;;;;;;;3.39;47.48;97280.88;8325135;28;20232;-83
2021/04/06 03:56:06;;;;;;;4.87;1.80;;;;;;;3.38;47.79;97276.63;8325704;28;20245;-82
2021/04/06 04:00:10;;;;;;;5.03;1.90;;;;;;;3.49;47.55;97269.50;8306251;28;20201;-82
2021/04/06 04:04:12;;;;;;;8.83;1.77;;;;;;;3.40;47.77;97274.03;8305670;28;20263;-83
2021/04/06 04:08:15;;;;;;;6.67;2.10;;;;;;;3.33;47.86;97270.78;8305785;28;20208;-83
2021/04/06 04:12:17;;;;;;;6.10;1.90;;;;;;;3.46;47.99;97268.75;8305909;28;20221;-81
2021/04/06 04:16:19;;;;;;;4.00;1.70;;;;;;;3.25;47.95;97257.38;8306712;28;20688;-81
2021/04/06 04:20:22;;;;;;;6.33;1.57;;;;;;;3.15;48.46;97259.34;8305640;28;20197;-81
2021/04/06 04:24:25;;;;;;;7.30;1.87;;;;;;;3.35;48.60;97257.97;8305507;28;20208;-81
2021/04/06 04:28:27;;;;;;;5.83;1.57;;;;;;;3.15;48.57;97245.72;8305236;28;20209;-82
2021/04/06 04:32:29;;;;;;;6.73;2.07;;;;;;;3.32;48.83;97239.25;8305098;28;20213;-82
2021/04/06 04:36:31;;;;;;;8.23;1.63;;;;;;;3.35;48.51;97240.03;8304488;28;20229;-82
2021/04/06 04:40:35;;;;;;;5.63;2.00;;;;;;;3.43;48.51;97248.38;8304258;28;20205;-82
2021/04/06 04:44:37;;;;;;;6.47;2.17;;;;;;;3.21;49.33;97231.00;8331882;28;20200;-82
2021/04/06 04:48:39;;;;;;;9.17;2.20;;;;;;;3.48;48.91;97249.94;8339152;28;20221;-81
2021/04/06 04:52:42;;;;;;;6.67;1.90;;;;;;;3.05;49.36;97220.34;8352485;28;20200;-82
2021/04/06 04:56:45;;;;;;;6.27;1.83;;;;;;;3.36;50.09;97244.28;8342864;28;20235;-82
2021/04/06 05:00:47;;;;;;;6.00;1.87;;;;;;;3.35;49.97;97232.38;8344196;28;20204;-81
2021/04/06 05:04:49;;;;;;;6.50;1.80;;;;;;;3.28;49.83;97224.88;8343456;28;20211;-82
2021/04/06 05:08:51;;;;;;;5.07;2.10;;;;;;;3.55;48.96;97230.09;8343249;28;20203;-81
2021/04/06 05:12:54;;;;;;;7.20;2.47;;;;;;;3.37;49.43;97236.59;8341353;28;20636;-83
2021/04/06 05:16:56;;;;;;;7.50;2.13;;;;;;;3.38;49.65;97243.38;8344455;28;20232;-83
2021/04/06 05:20:58;;;;;;;6.03;2.07;;;;;;;3.59;49.43;97241.94;8337909;28;20208;-81
2021/04/06 05:24:59;;;;;;;5.67;1.93;;;;;;;3.50;49.72;97247.31;8337435;28;20217;-81
2021/04/06 05:29:02;;;;;;;7.33;2.47;;;;;;;3.51;50.23;97244.72;8337562;28;20200;-81
2021/04/06 05:33:05;;;;;;;5.23;1.93;;;;;;;3.35;50.73;97248.59;8336961;28;20211;-81
2021/04/06 05:37:07;;;;;;;6.67;2.03;;;;;;;3.48;50.81;97239.69;8338137;28;20239;-81
2021/04/06 05:41:08;;;;;;;7.23;2.10;;;;;;;3.53;50.60;97242.09;8339437;28;20208;-81
2021/04/06 05:45:12;;;;;;;8.27;2.63;;;;;;;3.59;50.69;97238.53;8338823;28;20614;-83
2021/04/06 05:49:16;;;;;;;7.73;2.30;;;;;;;3.57;51.43;97241.13;8337083;28;20228;-83
2021/04/06 05:53:20;;;;;;;11.23;2.10;;;;;;;3.17;51.63;97234.53;8337989;28;20207;-83
2021/04/06 05:57:22;;;;;;;8.80;2.43;;;;;;;3.51;51.14;97234.47;8337294;28;20264;-83
2021/04/06 06:01:26;;;;;;;5.47;2.10;;;;;;;3.46;50.81;97238.03;8338446;28;20205;-83
2021/04/06 06:05:29;;;;;;;6.20;2.43;;;;;;;3.48;51.51;97249.94;8337421;28;20653;-82
2021/04/06 06:09:32;;;;;;;6.50;2.00;;;;;;;3.82;50.65;97250.69;8340564;28;20204;-82
2021/04/06 06:13:36;;;;;;;10.47;2.73;;;;;;;3.63;51.13;97252.94;8337882;28;20204;-82
2021/04/06 06:17:40;;;;;;;8.77;2.87;;;;;;;4.09;49.82;97266.97;8338096;28;20231;-82
2021/04/06 06:21:47;;;;;;;6.20;2.67;;;;;;;3.77;51.27;97273.03;8338344;28;20203;-83
2021/04/06 06:26:18;;;;;;;10.80;2.70;;;;;;;3.67;52.53;97275.00;8307031;28;20197;-83
2021/04/06 06:30:23;;;;;;;4.00;2.20;;;;;;;3.92;52.06;97277.72;8321566;28;20193;-82
2021/04/06 06:34:32;;;;;;;8.73;3.10;;;;;;;3.76;52.03;97279.03;8334588;28;20720;-82
2021/04/06 06:38:36;;;;;;;7.63;2.53;;;;;;;3.66;52.06;97276.72;8335252;28;20188;-82
2021/04/06 06:42:39;;;;;;;6.40;2.40;;;;;;;4.10;51.38;97277.19;8335175;28;20593;-82
2021/04/06 06:46:41;;;;;;;9.23;2.50;;;;;;;4.13;50.71;97273.69;8335135;28;20652;-82
2021/04/06 06:50:59;;;;;;;6.83;2.67;;;;;;;4.02;51.19;97274.00;8335078;28;20236;-82
2021/04/06 06:55:16;;;;;;;7.50;2.77;;;;;;;3.90;52.52;97276.91;8334610;28;20228;-82
2021/04/06 06:59:18;;;;;;;7.83;3.00;;;;;;;4.44;51.34;97283.03;8334499;28;20208;-82
2021/04/06 07:03:20;;;;;;;10.17;3.27;;;;;;;4.41;50.24;97270.28;8334878;28;20211;-82
2021/04/06 07:07:24;;;;;;;9.23;2.90;;;;;;;4.21;51.74;97269.19;8334834;28;20200;-82
2021/04/06 07:11:27;;;;;;;7.90;3.30;;;;;;;4.64;51.14;97272.13;8335278;28;20201;-81
2021/04/06 07:15:30;;;;;;;9.20;3.10;;;;;;;4.38;51.45;97270.38;8334354;28;20224;-83
2021/04/06 07:19:34;;;;;;;8.23;3.40;;;;;;;4.29;52.79;97280.03;8311251;28;20660;-83
2021/04/06 07:23:39;;;;;;;8.77;3.10;;;;;;;4.46;51.25;97276.97;8319651;28;20193;-83
2021/04/06 07:27:43;;;;;;;7.97;3.20;;;;;;;4.15;51.99;97279.63;8333455;28;20251;-84
2021/04/06 07:31:45;;;;;;;7.10;3.40;;;;;;;4.41;50.92;97262.59;8333700;28;20208;-82
2021/04/06 07:35:47;;;;;;;6.87;2.90;;;;;;;4.57;50.35;97279.19;8337532;28;20278;-82
2021/04/06 07:39:54;;;;;;;8.93;2.90;;;;;;;5.12;50.50;97284.25;8342310;28;20238;-82
2021/04/06 07:43:58;;;;;;;8.13;3.27;;;;;;;5.08;49.85;97295.50;8323904;28;20200;-82
2021/04/06 07:48:00;;;;;;;8.63;3.10;;;;;;;5.01;50.01;97276.94;8333268;28;20216;-82
2021/04/06 07:52:05;;;;;;;11.10;3.50;;;;;;;5.61;48.96;97284.31;8331307;28;20232;-83
2021/04/06 07:56:55;;;;;;;9.63;2.63;;;;;;;6.21;47.05;97285.59;8331369;28;20334;-82
2021/04/06 08:01:06;;;;;;;6.37;2.87;;;;;;;6.32;46.50;97289.47;8324669;28;20196;-82
2021/04/06 08:05:25;;;;;;;7.00;2.80;;;;;;;5.55;48.78;97293.06;8322234;28;20205;-82
2021/04/06 08:09:42;;;;;;;10.30;2.83;;;;;;;5.63;48.02;97285.09;8313592;28;20558;-82
2021/04/06 08:13:46;;;;;;;8.53;3.20;;;;;;;7.04;46.05;97300.34;8313954;28;20551;-82
2021/04/06 08:17:52;;;;;;;10.17;3.23;;;;;;;7.61;44.69;97292.78;8313380;28;20235;-82
2021/04/06 08:22:18;;;;;;;8.57;2.97;;;;;;;8.11;42.92;97293.22;8313673;28;20284;-83
2021/04/06 08:26:28;;;;;;;9.13;3.17;;;;;;;6.83;45.68;97302.06;8313992;28;20304;-83
2021/04/06 08:30:33;;;;;;;8.83;2.90;;;;;;;6.62;45.97;97310.59;8321474;28;20212;-83
2021/04/06 08:34:35;;;;;;;9.73;3.20;;;;;;;6.32;46.46;97315.19;8344618;28;20611;-83
2021/04/06 08:38:44;;;;;;;8.50;3.00;;;;;;;6.20;46.67;97314.75;8344534;28;20200;-83
2021/04/06 08:42:47;;;;;;;7.97;2.80;;;;;;;6.20;47.79;97319.88;8333798;28;20830;-82
2021/04/06 08:46:50;;;;;;;8.80;3.30;;;;;;;5.87;47.99;97316.78;8329197;28;20216;-83
2021/04/06 08:50:53;;;;;;;7.67;3.27;;;;;;;6.04;48.50;97317.06;8326125;28;20563;-82
2021/04/06 08:55:05;;;;;;;9.83;2.90;;;;;;;6.02;48.23;97323.97;8326748;28;20216;-82
2021/04/06 08:59:12;;;;;;;8.43;2.80;;;;;;;5.60;49.68;97324.59;8337379;28;20228;-82
2021/04/06 09:03:15;;;;;;;9.40;3.50;;;;;;;5.79;49.36;97324.78;8343627;28;20217;-83
2021/04/06 09:07:18;;;;;;;8.53;3.20;;;;;;;5.84;49.62;97324.59;8324894;28;20328;-84
2021/04/06 09:11:25;;;;;;;8.53;3.07;;;;;;;5.91;50.33;97310.66;8312740;28;20609;-84
2021/04/06 09:15:27;;;;;;;6.13;2.63;;;;;;;6.40;48.06;97319.16;8339545;28;20688;-84
2021/04/06 09:19:34;;;;;;;7.57;2.90;;;;;;;6.45;47.02;97342.13;8332709;28;20247;-83
2021/04/06 09:23:38;;;;;;;7.83;3.23;;;;;;;6.96;45.37;97304.97;8335559;28;20200;-83
2021/04/06 09:27:51;;;;;;;8.00;3.17;;;;;;;7.93;42.85;97297.47;8315946;28;20205;-82
2021/04/06 09:31:56;;;;;;;8.30;2.60;;;;;;;8.99;41.53;97292.59;8346695;28;20204;-84
2021/04/06 09:36:00;;;;;;;7.40;3.00;;;;;;;8.05;42.10;97290.91;8321867;28;20229;-83
2021/04/06 09:40:01;;;;;;;7.80;3.07;;;;;;;8.21;43.07;97294.50;8326084;28;20219;-84
2021/04/06 09:44:06;;;;;;;8.03;3.13;;;;;;;8.94;41.30;97299.72;8340372;28;20224;-85
2021/04/06 09:48:12;;;;;;;13.50;3.43;;;;;;;11.22;49.99;97292.91;8326984;28;20595;-87
2021/04/06 09:52:17;;;;;;;8.83;3.10;;;;;;;12.26;42.06;97281.53;8322620;28;20239;-86
2021/04/06 09:56:20;;;;;;;9.60;3.27;;;;;;;12.01;36.08;97279.59;8348292;28;20231;-85
2021/04/06 10:00:29;;;;;;;9.70;3.90;;;;;;;10.08;38.43;97283.63;8330588;28;20201;-84
2021/04/06 10:04:34;;;;;;;8.07;3.90;;;;;;;8.73;40.91;97286.09;8333559;28;20579;-83
2021/04/06 10:08:38;;;;;;;8.50;3.43;;;;;;;8.26;42.29;97289.94;8313444;28;20292;-84
2021/04/06 10:12:40;;;;;;;17.83;3.90;;;;;;;7.72;42.47;97296.66;8313625;28;20251;-81
2021/04/06 10:16:43;;;;;;;8.40;3.10;;;;;;;7.24;44.28;97293.53;8320686;28;20270;-83
2021/04/06 10:20:47;;;;;;;12.07;3.40;;;;;;;6.58;48.70;97299.59;8319747;28;20208;-84
2021/04/06 10:24:57;;;;;;;10.27;3.30;;;;;;;6.14;51.87;97299.56;8310602;28;20252;-84
2021/04/06 10:29:05;;;;;;;9.40;3.40;;;;;;;6.14;53.62;97311.56;8330648;28;20225;-83
2021/04/06 10:33:09;;;;;;;7.37;3.20;;;;;;;6.04;54.42;97304.19;8336687;28;20684;-83
2021/04/06 10:37:11;;;;;;;8.80;3.47;;;;;;;6.15;54.87;97297.81;8317815;28;20712;-83
2021/04/06 10:41:16;;;;;;;8.67;3.47;;;;;;;6.31;53.95;97293.78;8303535;28;20212;-84
2021/04/06 10:45:18;;;;;;;9.10;3.50;;;;;;;6.22;54.49;97289.81;8303857;28;20201;-84
2021/04/06 10:49:21;;;;;;;11.17;3.97;;;;;;;6.26;54.88;97290.53;8303993;28;20655;-80
2021/04/06 10:53:26;;;;;;;9.83;3.80;;;;;;;6.52;54.21;97275.84;8305189;28;20212;-80
2021/04/06 10:57:30;;;;;;;9.00;3.93;;;;;;;6.34;53.89;97270.53;8329745;28;20220;-82
2021/04/06 11:01:47;;;;;;;13.10;3.40;;;;;;;6.46;53.43;97264.06;8335085;28;20276;-82
2021/04/06 11:05:49;;;;;;;12.93;3.73;;;;;;;7.20;51.68;97255.94;8335082;28;20221;-83
2021/04/06 11:09:51;;;;;;;8.50;3.30;;;;;;;7.67;51.96;97244.47;8335579;28;20192;-83
2021/04/06 11:13:57;;;;;;;6.80;2.90;;;;;;;6.82;50.98;97258.38;8316133;28;20561;-83
2021/04/06 11:17:59;;;;;;;8.47;3.07;;;;;;;6.26;53.35;97249.41;8305640;28;20221;-83
2021/04/06 11:22:04;;;;;;;11.27;3.63;;;;;;;6.56;53.67;97249.94;8298457;28;20545;-83
2021/04/06 11:26:06;;;;;;;9.50;3.50;;;;;;;7.01;51.86;97243.84;8305323;28;20638;-83
2021/04/06 11:30:11;;;;;;;15.17;3.87;;;;;;;7.32;50.46;97239.13;8333537;28;20710;-83
2021/04/06 11:34:16;;;;;;;6.07;3.13;;;;;;;7.78;49.24;97225.06;8334477;28;20215;-83
2021/04/06 11:38:18;;;;;;;9.00;4.07;;;;;;;8.10;48.57;97207.28;8333061;28;20225;-83
2021/04/06 11:42:20;;;;;;;6.43;2.70;;;;;;;8.19;47.42;97186.22;8332226;28;20250;-84
2021/04/06 11:46:24;;;;;;;8.97;2.90;;;;;;;8.02;47.20;97207.63;8333864;28;20578;-83
2021/04/06 11:50:26;;;;;;;7.63;2.60;;;;;;;7.09;43.83;97229.81;8334663;28;20232;-84
2021/04/06 11:54:29;;;;;;;5.13;2.33;;;;;;;5.80;54.07;97262.19;8349034;28;20185;-84
2021/04/06 11:58:35;;;;;;;5.37;2.00;;;;;;;5.42;55.77;97258.44;8350951;28;20220;-84
2021/04/06 12:02:59;;;;;;;5.80;1.90;;;;;;;4.78;58.29;97270.00;8335437;28;20242;-83
2021/04/06 12:07:01;;;;;;;4.00;2.10;;;;;;;4.98;58.79;97255.66;8336330;28;20672;-81
2021/04/06 12:11:03;;;;;;;4.00;2.00;;;;;;;5.39;58.02;97256.81;8333298;28;20234;-83
2021/04/06 12:15:06;;;;;;;4.67;2.10;;;;;;;6.01;55.62;97242.63;8336959;28;20207;-83
2021/04/06 12:19:10;;;;;;;3.80;2.20;;;;;;;7.04;54.01;97229.97;8340148;28;20253;-83
2021/04/06 12:23:13;;;;;;;5.60;3.50;;;;;;;7.59;52.71;97219.06;8340479;28;20770;-85
2021/04/06 12:27:15;;;;;;;6.63;3.27;;;;;;;8.02;50.98;97214.53;8341919;28;20653;-84
2021/04/06 12:31:18;;;;;;;6.13;2.47;;;;;;;7.69;51.09;97204.00;8340628;28;20223;-84
2021/04/06 12:35:21;;;;;;;7.33;3.73;;;;;;;7.56;50.83;97191.69;8339601;28;20611;-83
2021/04/06 12:39:23;;;;;;;8.53;3.87;;;;;;;8.13;51.02;97216.63;8339970;28;20211;-84
2021/04/06 12:43:25;;;;;;;5.40;2.60;;;;;;;8.84;49.40;97203.78;8340056;28;20204;-84
2021/04/06 12:47:27;;;;;;;6.13;2.70;;;;;;;9.07;49.15;97199.22;8341060;28;20201;-84
2021/04/06 12:51:35;;;;;;;7.27;2.80;;;;;;;9.52;48.38;97190.88;8338809;28;20236;-84
2021/04/06 12:55:39;;;;;;;6.03;2.23;;;;;;;8.96;47.56;97179.94;8337992;28;20433;-84
2021/04/06 12:59:41;;;;;;;3.40;1.80;;;;;;;9.25;44.81;97184.53;8337748;28;20196;-84
2021/04/06 13:03:44;;;;;;;5.40;1.87;;;;;;;9.10;44.49;97176.66;8337528;28;20565;-84
2021/04/06 13:07:47;;;;;;;4.77;2.00;;;;;;;9.56;44.88;97176.03;8337568;28;20212;-84
2021/04/06 13:11:49;;;;;;;7.33;2.27;;;;;;;9.94;44.12;97166.22;8338224;28;20208;-84
2021/04/06 13:15:52;;;;;;;5.27;3.13;;;;;;;10.06;43.26;97163.88;8342532;28;20232;-85
2021/04/06 13:19:54;;;;;;;6.67;2.30;;;;;;;9.26;44.25;97158.63;8340219;28;20212;-85
2021/04/06 13:23:59;;;;;;;6.37;2.20;;;;;;;8.57;44.26;97154.38;8338584;28;20880;-86
2021/04/06 13:28:01;;;;;;;3.67;2.33;;;;;;;8.10;45.32;97154.88;8340618;28;20737;-86
2021/04/06 13:32:04;;;;;;;6.67;2.27;;;;;;;7.75;46.44;97157.34;8339252;28;20208;-86
2021/04/06 13:36:08;;;;;;;5.23;2.30;;;;;;;7.05;48.03;97175.84;8337728;28;20256;-87
2021/04/06 13:40:15;;;;;;;5.20;2.37;;;;;;;7.01;50.79;97178.66;8336761;28;20660;-87
2021/04/06 13:44:18;;;;;;;5.70;2.50;;;;;;;6.55;53.73;97209.69;8337077;28;20667;-86
2021/04/06 13:48:21;;;;;;;3.70;2.00;;;;;;;5.61;57.30;97190.09;8320152;28;20599;-86
2021/04/06 13:52:23;;;;;;;6.97;1.87;;;;;;;5.80;56.54;97197.97;8338886;28;20232;-84
2021/04/06 13:56:27;;;;;;;4.57;2.10;;;;;;;4.84;58.34;97213.34;8336876;28;20280;-86
2021/04/06 14:00:32;;;;;;;4.17;1.30;;;;;;;5.55;54.26;97194.63;8327886;28;20200;-86
2021/04/06 14:04:37;;;;;;;2.20;1.10;;;;;;;6.04;54.02;97162.00;8325553;28;20606;-84
2021/04/06 14:08:39;;;;;;;3.63;2.10;;;;;;;6.85;52.04;97152.69;8335912;28;20213;-85
2021/04/06 14:12:43;;;;;;;5.53;3.20;;;;;;;7.07;51.83;97138.94;8335859;28;20636;-85
2021/04/06 14:16:47;;;;;;;5.43;4.10;;;;;;;7.51;49.92;97125.81;8367858;28;20212;-85
2021/04/06 14:20:49;;;;;;;6.03;3.53;;;;;;;7.95;49.96;97122.91;8335744;28;20208;-84
2021/04/06 14:24:51;;;;;;;6.43;1.83;;;;;;;8.03;49.46;97123.38;8331608;28;20197;-85
2021/04/06 14:28:56;;;;;;;3.73;2.00;;;;;;;7.86;50.10;97120.75;8303163;28;20273;-85
2021/04/06 14:32:59;;;;;;;2.67;1.90;;;;;;;7.36;52.40;97132.47;8303806;28;20559;-84
2021/04/06 14:37:02;;;;;;;4.30;2.07;;;;;;;7.03;51.43;97135.66;8302705;28;20229;-84
2021/04/06 14:41:04;;;;;;;5.53;1.53;;;;;;;7.20;51.19;97129.75;8303476;28;20228;-84
2021/04/06 14:45:09;;;;;;;3.97;1.20;;;;;;;7.10;50.16;97120.75;8302276;28;20209;-87
2021/04/06 14:49:12;;;;;;;2.80;1.30;;;;;;;7.76;49.37;97115.19;8304993;28;20236;-83
2021/04/06 14:53:14;;;;;;;2.17;1.20;;;;;;;7.86;45.96;97113.03;8305214;28;20228;-83
2021/04/06 14:57:16;;;;;;;1.77;0.90;;;;;;;8.07;45.39;97104.25;8329400;28;20235;-84
2021/04/06 15:01:20;;;;;;;1.83;1.00;;;;;;;8.55;44.26;97099.41;8336634;28;20224;-82
2021/04/06 15:05:24;;;;;;;1.90;1.20;;;;;;;8.66;45.32;97080.78;8339293;28;20223;-84
2021/04/06 15:09:26;;;;;;;2.57;1.53;;;;;;;8.46;44.96;97081.81;8341930;28;20207;-84
2021/04/06 15:13:30;;;;;;;4.23;1.40;;;;;;;7.95;45.92;97087.66;8288804;28;20227;-84
2021/04/06 15:17:34;;;;;;;3.40;1.77;;;;;;;8.05;44.15;97074.31;8305425;28;20595;-84
2021/04/06 15:21:48;;;;;;;4.17;2.00;;;;;;;8.21;44.60;97083.81;8306084;28;20653;-84
2021/04/06 15:25:51;;;;;;;3.77;2.53;;;;;;;8.06;44.68;97060.53;8325947;28;20582;-83
2021/04/06 15:29:53;;;;;;;2.63;1.80;;;;;;;7.95;45.19;97079.91;8318513;28;20221;-84
2021/04/06 15:33:57;;;;;;;4.90;2.10;;;;;;;7.50;45.24;97070.88;8336030;28;20223;-84
2021/04/06 15:38:10;;;;;;;6.53;3.33;;;;;;;7.60;45.38;97073.84;8335672;28;20228;-83
2021/04/06 15:42:12;;;;;;;6.07;3.23;;;;;;;7.54;45.61;97084.44;8335423;28;20197;-84
2021/04/06 15:46:15;;;;;;;7.50;3.90;;;;;;;7.35;45.89;97081.84;8335531;28;20201;-84
2021/04/06 15:50:20;;;;;;;6.63;3.20;;;;;;;7.17;46.45;97078.38;8338455;28;20232;-84
2021/04/06 15:54:23;;;;;;;5.03;1.90;;;;;;;6.73;48.80;97083.75;8338442;28;20209;-84
2021/04/06 15:58:25;;;;;;;3.83;2.00;;;;;;;6.73;50.59;97089.72;8324598;28;20221;-84
2021/04/06 16:02:28;;;;;;;3.47;1.90;;;;;;;6.61;50.30;97073.06;8333446;28;20211;-84
2021/04/06 16:06:31;;;;;;;4.23;1.73;;;;;;;6.59;50.79;97056.03;8347380;28;20549;-84
2021/04/06 16:10:34;;;;;;;3.50;1.60;;;;;;;6.69;49.03;97054.75;8331152;28;20282;-84
2021/04/06 16:14:37;;;;;;;3.87;1.80;;;;;;;6.54;49.03;97058.78;8313450;28;20284;-85
2021/04/06 16:18:46;;;;;;;4.37;2.57;;;;;;;6.59;47.08;97069.75;8313760;28;20271;-84
2021/04/06 16:22:51;;;;;;;4.50;2.30;;;;;;;6.62;47.99;97077.31;8311040;28;20201;-85
2021/04/06 16:26:54;;;;;;;1.80;1.23;;;;;;;6.43;46.45;97068.69;8309876;28;20209;-84
2021/04/06 16:30:57;;;;;;;3.00;1.73;;;;;;;6.22;45.80;97083.28;8307856;28;20205;-85
2021/04/06 16:34:59;;;;;;;2.97;1.47;;;;;;;5.97;47.29;97102.25;8309560;28;20638;-85
2021/04/06 16:39:03;;;;;;;1.47;1.10;;;;;;;5.94;48.63;97114.38;8341579;28;20227;-88
2021/04/06 16:43:06;;;;;;;3.13;1.50;;;;;;;5.85;49.34;97110.44;8325482;28;20204;-83
2021/04/06 16:47:13;;;;;;;5.77;4.23;;;;;;;5.96;50.00;97110.88;8340227;28;20754;-85
2021/04/06 16:51:15;;;;;;;6.63;2.70;;;;;;;6.05;50.42;97102.81;8331698;28;20240;-83
2021/04/06 16:55:18;;;;;;;2.40;1.50;;;;;;;5.67;51.55;97105.13;8321035;28;20201;-87
2021/04/06 16:59:23;;;;;;;3.50;1.83;;;;;;;5.56;52.49;97122.69;8320599;28;20220;-86
2021/04/06 17:03:27;;;;;;;2.27;1.20;;;;;;;5.45;52.74;97117.94;8338843;28;20200;-87
2021/04/06 17:07:29;;;;;;;3.73;1.80;;;;;;;5.56;52.85;97142.38;8333999;28;20197;-88
2021/04/06 17:11:33;;;;;;;3.83;2.80;;;;;;;5.31;55.54;97129.59;8322368;28;20287;-87
2021/04/06 17:15:36;;;;;;;4.20;2.10;;;;;;;5.38;57.21;97149.84;8330442;28;20287;-87
2021/04/06 17:19:38;;;;;;;1.97;1.20;;;;;;;4.58;59.64;97160.34;8355982;28;20236;-87
2021/04/06 17:23:42;;;;;;;2.57;1.47;;;;;;;4.63;59.45;97167.91;8355232;28;20196;-88
2021/04/06 17:27:46;;;;;;;2.43;1.50;;;;;;;4.97;58.84;97167.59;8342542;28;20635;-87
2021/04/06 17:31:49;;;;;;;2.73;1.20;;;;;;;4.82;58.63;97158.69;8315708;28;20645;-88
2021/04/06 17:35:56;;;;;;;1.80;0.93;;;;;;;4.84;57.11;97143.25;8314410;28;20244;-87
2021/04/06 17:39:58;;;;;;;1.73;1.20;;;;;;;4.80;57.02;97119.41;8322281;28;20198;-87
2021/04/06 17:44:01;;;;;;;1.30;1.20;;;;;;;4.96;55.11;97109.44;8321918;28;20247;-85
2021/04/06 17:48:05;;;;;;;2.30;1.30;;;;;;;5.34;54.61;97114.91;8331739;28;20220;-86
2021/04/06 17:52:07;;;;;;;4.00;1.50;;;;;;;5.45;54.09;97117.09;8323704;28;20232;-85
2021/04/06 17:56:09;;;;;;;2.43;1.70;;;;;;;5.54;53.91;97127.03;8328566;28;20588;-85
2021/04/06 18:00:18;;;;;;;4.40;3.20;;;;;;;5.57;53.39;97124.34;8325207;28;20679;-86
2021/04/06 18:04:20;;;;;;;5.83;5.00;;;;;;;5.72;53.69;97142.66;8322848;28;20202;-85
2021/04/06 18:08:26;;;;;;;5.00;3.97;;;;;;;5.70;53.64;97152.97;8359539;28;20208;-85
2021/04/06 18:12:28;;;;;;;7.23;4.60;;;;;;;5.68;53.55;97157.34;8350120;28;20291;-86
2021/04/06 18:16:31;;;;;;;4.87;4.03;;;;;;;5.37;53.81;97165.31;8323774;28;20236;-86
2021/04/06 18:20:34;;;;;;;5.70;4.47;;;;;;;5.48;54.30;97181.16;8308552;28;20208;-86
2021/04/06 18:24:40;;;;;;;2.60;2.30;;;;;;;5.50;53.96;97197.34;8307832;28;20201;-86
2021/04/06 18:28:42;;;;;;;3.87;2.73;;;;;;;5.49;54.29;97191.41;8308085;28;20289;-86
2021/04/06 18:32:47;;;;;;;4.07;2.53;;;;;;;5.16;55.53;97172.06;8309619;28;20205;-86
2021/04/06 18:36:50;;;;;;;4.07;2.67;;;;;;;5.19;55.68;97198.44;8309647;28;20221;-86
2021/04/06 18:40:52;;;;;;;5.40;3.13;;;;;;;5.26;56.07;97196.53;8308406;28;20212;-86
2021/04/06 18:44:55;;;;;;;1.90;1.50;;;;;;;4.89;58.15;97211.47;8335003;28;20216;-87
2021/04/06 18:48:59;;;;;;;2.63;1.50;;;;;;;4.69;58.29;97209.56;8338223;28;20244;-87
2021/04/06 18:53:02;;;;;;;2.70;1.70;;;;;;;4.88;57.86;97209.78;8339047;28;20215;-86
2021/04/06 18:57:06;;;;;;;4.00;2.40;;;;;;;5.02;57.74;97201.59;8338436;28;20677;-86
2021/04/06 19:01:10;;;;;;;4.13;2.50;;;;;;;4.86;58.07;97190.22;8311865;28;20184;-86
2021/04/06 19:05:15;;;;;;;2.87;1.97;;;;;;;5.14;57.51;97190.09;8366052;28;20208;-86
2021/04/06 19:09:18;;;;;;;4.40;2.47;;;;;;;5.02;57.50;97175.09;8343180;28;20212;-86
2021/04/06 19:13:41;;;;;;;3.13;1.80;;;;;;;4.97;56.87;97171.84;8343098;28;20319;-86
2021/04/06 19:17:45;;;;;;;3.30;1.80;;;;;;;5.00;56.75;97197.44;8337897;28;20266;-85
2021/04/06 19:21:49;;;;;;;4.07;2.40;;;;;;;5.07;57.12;97186.91;8332004;28;20224;-85
2021/04/06 19:25:53;;;;;;;3.13;1.57;;;;;;;5.14;56.32;97182.41;8326607;28;20231;-85